Time;durP1;ratioP1;P1;durP2;ratioP2;P2;SDS_P1;SDS_P2;PMS_P1;PMS_P2;Temp;Humidity;BMP_temperature;BMP_pressure;BME280_temperature;BME280_humidity;BME280_pressure;Samples;Min_cycle;Max_cycle;Signal;HPM_P1;HPM_P2
2023/01/21 00:01:05;;;;;;;70.85;38.13;;;;;;;0.34;100.00;102566.22;5011495;28;20495;-66
2023/01/21 00:03:31;;;;;;;67.07;35.85;;;;;;;0.32;100.00;102565.41;5024178;28;20041;-66
2023/01/21 00:05:58;;;;;;;66.72;35.00;;;;;;;0.34;100.00;102568.81;5009540;28;20049;-67
2023/01/21 00:08:25;;;;;;;63.33;34.55;;;;;;;0.36;100.00;102567.03;5016455;28;20081;-67
2023/01/21 00:10:52;;;;;;;64.72;32.70;;;;;;;0.33;100.00;102574.88;5014895;28;20050;-67
2023/01/21 00:13:18;;;;;;;63.97;33.88;;;;;;;0.30;100.00;102564.59;5008934;28;20061;-66
2023/01/21 00:15:45;;;;;;;61.30;30.35;;;;;;;0.25;100.00;102563.84;5007327;28;20054;-66
2023/01/21 00:18:11;;;;;;;56.25;29.73;;;;;;;0.26;100.00;102567.31;5015241;28;20056;-67
2023/01/21 00:20:38;;;;;;;57.70;28.65;;;;;;;0.26;100.00;102568.16;5022746;28;20494;-66
2023/01/21 00:23:05;;;;;;;55.20;27.40;;;;;;;0.25;100.00;102570.75;5012240;28;20502;-66
2023/01/21 00:25:31;;;;;;;50.85;25.27;;;;;;;0.25;100.00;102573.34;4998609;28;20061;-66
2023/01/21 00:27:58;;;;;;;51.45;26.63;;;;;;;0.25;100.00;102568.19;5010368;28;20046;-66
2023/01/21 00:30:25;;;;;;;56.53;27.13;;;;;;;0.26;100.00;102572.47;5005260;28;20180;-66
2023/01/21 00:32:51;;;;;;;46.25;23.95;;;;;;;0.26;100.00;102573.31;5020320;28;20045;-66
2023/01/21 00:35:18;;;;;;;47.55;24.67;;;;;;;0.22;100.00;102576.84;5017821;28;20060;-67
2023/01/21 00:37:44;;;;;;;47.20;24.88;;;;;;;0.20;100.00;102578.63;5022209;28;20141;-66
2023/01/21 00:40:11;;;;;;;48.53;23.27;;;;;;;0.18;100.00;102580.41;5017421;28;20470;-67
2023/01/21 00:42:38;;;;;;;46.20;23.58;;;;;;;0.16;100.00;102587.31;5009864;28;20045;-66
2023/01/21 00:45:05;;;;;;;42.50;21.15;;;;;;;0.16;100.00;102595.06;5008460;28;20564;-66
2023/01/21 00:47:31;;;;;;;44.28;23.27;;;;;;;0.18;100.00;102593.28;5014805;28;20046;-66
2023/01/21 00:49:57;;;;;;;44.25;21.70;;;;;;;0.16;100.00;102597.66;5013662;28;20084;-66
2023/01/21 00:52:24;;;;;;;40.60;20.55;;;;;;;0.14;100.00;102610.59;5017436;28;20057;-66
2023/01/21 00:54:50;;;;;;;41.75;20.73;;;;;;;0.15;100.00;102612.25;5021662;28;20060;-66
2023/01/21 00:57:17;;;;;;;45.47;21.15;;;;;;;0.12;100.00;102612.34;5024723;28;20064;-67
2023/01/21 00:59:43;;;;;;;36.95;20.05;;;;;;;0.11;100.00;102625.28;5027176;28;20160;-67
2023/01/21 01:02:10;;;;;;;37.15;19.05;;;;;;;0.11;100.00;102628.69;5031257;28;20704;-66
2023/01/21 01:04:36;;;;;;;36.67;17.85;;;;;;;0.10;100.00;102626.16;5019351;28;20413;-66
2023/01/21 01:07:03;;;;;;;36.53;19.13;;;;;;;0.13;100.00;102636.41;5029643;28;20052;-66
2023/01/21 01:09:29;;;;;;;37.75;19.40;;;;;;;0.08;100.00;102635.66;5016811;28;20064;-66
2023/01/21 01:11:56;;;;;;;40.78;19.35;;;;;;;0.10;100.00;102650.25;5038214;28;20124;-66
2023/01/21 01:14:22;;;;;;;36.20;18.85;;;;;;;0.07;100.00;102659.78;5023425;28;20053;-66
2023/01/21 01:16:49;;;;;;;40.17;19.17;;;;;;;0.02;100.00;102661.59;5011470;28;20053;-67
2023/01/21 01:19:16;;;;;;;39.65;18.25;;;;;;;0.07;100.00;102667.53;5030825;28;20425;-66
2023/01/21 01:21:42;;;;;;;33.58;17.20;;;;;;;0.02;100.00;102679.66;5006623;28;20049;-66
2023/01/21 01:24:08;;;;;;;36.28;18.77;;;;;;;-0.02;100.00;102687.47;5007765;28;20090;-67
2023/01/21 01:26:35;;;;;;;39.03;19.58;;;;;;;-0.05;100.00;102687.53;5023015;28;20513;-66
2023/01/21 01:29:03;;;;;;;33.83;17.33;;;;;;;-0.01;100.00;102693.47;5022642;28;20058;-66
2023/01/21 01:31:30;;;;;;;36.83;18.52;;;;;;;-0.06;100.00;102696.16;5000040;28;20053;-67
2023/01/21 01:33:56;;;;;;;37.70;18.60;;;;;;;-0.05;100.00;102695.28;5011579;28;20080;-68
2023/01/21 01:36:23;;;;;;;39.55;20.15;;;;;;;-0.07;100.00;102702.19;5020795;28;20776;-67
2023/01/21 01:38:51;;;;;;;40.35;20.08;;;;;;;-0.05;100.00;102691.84;5017557;28;20055;-66
2023/01/21 01:41:20;;;;;;;39.72;19.05;;;;;;;-0.03;100.00;102706.41;5019663;28;20053;-66
2023/01/21 01:43:47;;;;;;;38.05;18.25;;;;;;;-0.03;100.00;102711.56;5020553;28;20049;-67
2023/01/21 01:46:14;;;;;;;38.72;18.70;;;;;;;-0.04;100.00;102702.16;5025183;28;20060;-66
2023/01/21 01:48:45;;;;;;;35.10;18.13;;;;;;;-0.03;100.00;102705.56;5017023;28;20556;-67
2023/01/21 01:51:15;;;;;;;43.08;18.77;;;;;;;-0.03;100.00;102711.56;5014643;28;20057;-66
2023/01/21 01:53:45;;;;;;;37.33;17.58;;;;;;;-0.06;100.00;102721.09;5018381;28;20042;-67
2023/01/21 01:56:12;;;;;;;33.03;18.15;;;;;;;-0.06;100.00;102726.25;4999845;28;20045;-67
2023/01/21 01:58:38;;;;;;;37.25;18.92;;;;;;;-0.09;100.00;102728.91;5026472;28;20060;-66
2023/01/21 02:01:05;;;;;;;44.25;18.80;;;;;;;-0.11;100.00;102726.34;5022912;28;20066;-67
2023/01/21 02:03:44;;;;;;;42.50;18.48;;;;;;;-0.12;100.00;102737.53;5018990;28;20038;-66
2023/01/21 02:06:13;;;;;;;36.20;18.30;;;;;;;-0.13;100.00;102728.13;5017883;28;20504;-67
2023/01/21 02:08:41;;;;;;;37.65;17.83;;;;;;;-0.14;100.00;102736.72;5015465;28;20188;-66
2023/01/21 02:11:16;;;;;;;36.63;19.03;;;;;;;-0.09;100.00;102739.25;5038576;28;20057;-67
2023/01/21 02:13:47;;;;;;;39.53;18.65;;;;;;;-0.08;100.00;102746.06;5017909;28;20081;-67
2023/01/21 02:16:32;;;;;;;37.53;17.83;;;;;;;-0.06;100.00;102746.91;5012483;28;20061;-66
2023/01/21 02:19:39;;;;;;;36.67;17.92;;;;;;;-0.04;100.00;102760.63;5013513;28;20158;-66
2023/01/21 02:22:31;;;;;;;36.40;17.70;;;;;;;-0.04;100.00;102752.88;5021149;28;20054;-66
2023/01/21 02:25:19;;;;;;;37.65;18.30;;;;;;;-0.09;100.00;102749.56;5006941;28;20673;-66
2023/01/21 02:28:05;;;;;;;37.15;18.40;;;;;;;-0.10;100.00;102761.63;5025711;28;20060;-66
2023/01/21 02:31:18;;;;;;;35.03;16.95;;;;;;;-0.11;100.00;102756.47;5009701;28;20057;-67
2023/01/21 02:34:11;;;;;;;37.65;16.63;;;;;;;-0.12;100.00;102762.50;4925297;28;20135;-66
2023/01/21 02:36:47;;;;;;;38.13;18.63;;;;;;;-0.13;100.00;102758.25;4939216;28;20062;-66
2023/01/21 02:39:37;;;;;;;38.72;18.42;;;;;;;-0.13;100.00;102764.25;5000700;28;20588;-66
2023/01/21 02:42:18;;;;;;;33.92;16.73;;;;;;;-0.13;100.00;102766.81;5018743;28;20053;-66
2023/01/21 02:45:00;;;;;;;34.58;17.63;;;;;;;-0.18;100.00;102762.63;5032974;28;20045;-66
2023/01/21 02:47:53;;;;;;;40.30;18.45;;;;;;;-0.15;100.00;102776.31;5014022;28;20049;-66
2023/01/21 02:50:23;;;;;;;38.33;17.80;;;;;;;-0.18;100.00;102778.09;5014495;28;20164;-67
2023/01/21 02:52:55;;;;;;;36.17;17.58;;;;;;;-0.15;100.00;102785.78;5019859;28;20045;-66
2023/01/21 02:55:27;;;;;;;37.25;17.83;;;;;;;-0.19;100.00;102789.31;5023467;28;20053;-66
2023/01/21 02:58:00;;;;;;;38.33;16.35;;;;;;;-0.18;100.00;102786.69;5023423;28;20089;-67
2023/01/21 03:00:42;;;;;;;39.75;19.25;;;;;;;-0.16;100.00;102789.25;5013192;28;20049;-67
2023/01/21 03:03:40;;;;;;;40.20;18.10;;;;;;;-0.16;100.00;102802.13;5019605;28;20049;-66
2023/01/21 03:06:47;;;;;;;37.20;17.92;;;;;;;-0.18;100.00;102797.00;5014436;28;20099;-66
2023/01/21 03:09:22;;;;;;;34.00;16.83;;;;;;;-0.17;100.00;102803.03;5018627;28;20138;-66
2023/01/21 03:12:14;;;;;;;33.85;17.23;;;;;;;-0.17;100.00;102795.28;5009435;28;20057;-66
2023/01/21 03:17:53;;;;;;;35.30;16.75;;;;;;;-0.22;100.00;102800.50;5011888;28;20057;-66
2023/01/21 03:20:52;;;;;;;;;;;;;;;-0.22;100.00;102811.72;5022646;28;20164;-67
2023/01/21 03:23:24;;;;;;;31.85;15.68;;;;;;;-0.28;100.00;102814.38;4993787;28;19925;-66
2023/01/21 03:25:51;;;;;;;37.53;17.52;;;;;;;-0.29;100.00;102814.41;5015253;28;20049;-65
2023/01/21 03:28:21;;;;;;;38.65;18.98;;;;;;;-0.29;100.00;102815.25;5017479;28;20053;-67
2023/01/21 03:31:02;;;;;;;40.38;18.58;;;;;;;-0.30;100.00;102818.69;5008945;28;20049;-66
2023/01/21 03:33:31;;;;;;;34.63;16.60;;;;;;;-0.33;100.00;102812.75;5015189;28;20049;-66
2023/01/21 03:36:05;;;;;;;38.67;18.58;;;;;;;-0.38;100.00;102810.25;5016928;28;20506;-66
2023/01/21 03:38:37;;;;;;;35.45;17.75;;;;;;;-0.34;100.00;102823.94;5008982;28;20053;-66
2023/01/21 03:41:13;;;;;;;36.28;16.85;;;;;;;-0.33;100.00;102825.63;5009612;28;20061;-66
2023/01/21 03:43:39;;;;;;;38.88;17.67;;;;;;;-0.41;100.00;102826.66;5030560;28;20048;-66
2023/01/21 03:46:24;;;;;;;38.90;17.83;;;;;;;-0.38;100.00;102832.63;5000564;28;20049;-67
2023/01/21 03:49:02;;;;;;;36.00;17.25;;;;;;;-0.43;100.00;102835.28;5026863;28;20053;-66
2023/01/21 03:51:35;;;;;;;36.28;18.05;;;;;;;-0.43;100.00;102830.13;5021272;28;20049;-67
2023/01/21 03:54:01;;;;;;;35.40;17.35;;;;;;;-0.51;100.00;102843.16;5028245;28;20045;-66
2023/01/21 03:56:28;;;;;;;33.38;16.77;;;;;;;-0.54;100.00;102840.63;5014159;28;20057;-67
2023/01/21 03:58:54;;;;;;;41.58;17.90;;;;;;;-0.56;100.00;102837.22;5011765;28;20089;-66
2023/01/21 04:01:21;;;;;;;41.33;18.38;;;;;;;-0.54;100.00;102848.34;5023169;28;20132;-66
2023/01/21 04:03:48;;;;;;;37.35;16.98;;;;;;;-0.56;100.00;102844.94;5021777;28;20077;-66
2023/01/21 04:06:16;;;;;;;37.28;18.17;;;;;;;-0.55;100.00;102848.38;5024465;28;20415;-67
2023/01/21 04:08:43;;;;;;;34.88;17.48;;;;;;;-0.59;100.00;102850.13;5023255;28;20136;-67
2023/01/21 04:11:09;;;;;;;38.58;18.05;;;;;;;-0.61;100.00;102851.88;5020559;28;20058;-66
2023/01/21 04:13:36;;;;;;;43.42;18.10;;;;;;;-0.62;100.00;102848.47;5017898;28;20489;-66
2023/01/21 04:16:03;;;;;;;39.30;19.30;;;;;;;-0.61;100.00;102849.31;5028047;28;20828;-66
2023/01/21 04:18:29;;;;;;;38.33;18.50;;;;;;;-0.62;100.00;102858.78;5019116;28;20062;-66
2023/01/21 04:20:56;;;;;;;36.70;17.95;;;;;;;-0.63;100.00;102859.66;5021372;28;20057;-66
2023/01/21 04:23:22;;;;;;;40.80;19.05;;;;;;;-0.64;100.00;102860.53;5027134;28;20076;-66
2023/01/21 04:25:50;;;;;;;34.30;16.95;;;;;;;-0.62;100.00;102863.09;5017762;28;20136;-66
2023/01/21 04:28:17;;;;;;;40.78;17.92;;;;;;;-0.63;100.00;102864.81;5019992;28;20064;-65
2023/01/21 04:30:46;;;;;;;44.17;19.88;;;;;;;-0.61;100.00;102869.94;5015870;28;20064;-66
2023/01/21 04:33:13;;;;;;;37.13;17.90;;;;;;;-0.65;100.00;102863.13;5027276;28;20520;-66
2023/01/21 04:35:39;;;;;;;40.65;18.27;;;;;;;-0.65;100.00;102870.84;5024620;28;20049;-65
2023/01/21 04:38:05;;;;;;;38.80;17.20;;;;;;;-0.64;100.00;102864.84;5024500;28;20497;-67
2023/01/21 04:40:32;;;;;;;40.15;19.40;;;;;;;-0.59;100.00;102860.44;5024091;28;20741;-67
2023/01/21 04:42:58;;;;;;;35.20;16.73;;;;;;;-0.55;100.00;102861.25;5031303;28;20048;-66
2023/01/21 04:45:25;;;;;;;38.35;17.35;;;;;;;-0.57;100.00;102856.13;5024573;28;20098;-66
2023/01/21 04:47:51;;;;;;;37.58;18.10;;;;;;;-0.54;100.00;102865.56;5014780;28;20121;-67
2023/01/21 04:50:19;;;;;;;42.10;19.38;;;;;;;-0.53;100.00;102868.09;5027755;28;20068;-66
2023/01/21 04:52:45;;;;;;;38.92;17.63;;;;;;;-0.52;100.00;102868.94;5020343;28;20057;-66
2023/01/21 04:55:11;;;;;;;43.45;18.67;;;;;;;-0.54;100.00;102875.88;5019574;28;20057;-66
2023/01/21 04:57:38;;;;;;;41.33;19.33;;;;;;;-0.55;100.00;102881.88;5031767;28;20049;-66
2023/01/21 05:00:06;;;;;;;40.92;19.40;;;;;;;-0.58;100.00;102882.78;5023894;28;20518;-67
2023/01/21 05:02:33;;;;;;;40.85;18.52;;;;;;;-0.65;100.00;102889.78;5018953;28;20050;-66
2023/01/21 05:04:59;;;;;;;34.60;17.48;;;;;;;-0.61;100.00;102893.13;4997528;28;20536;-66
2023/01/21 05:07:26;;;;;;;40.78;18.50;;;;;;;-0.63;100.00;102888.03;5034078;28;20057;-67
2023/01/21 05:09:52;;;;;;;41.00;18.83;;;;;;;-0.66;100.00;102887.22;5030576;28;20057;-66
2023/01/21 05:12:19;;;;;;;43.17;20.17;;;;;;;-0.64;100.00;102898.34;5026249;28;20115;-66
2023/01/21 05:14:45;;;;;;;43.42;18.40;;;;;;;-0.70;100.00;102898.44;5031390;28;20050;-66
2023/01/21 05:17:11;;;;;;;47.38;19.50;;;;;;;-0.68;100.00;102894.97;5026631;28;20524;-66
2023/01/21 05:19:38;;;;;;;41.42;18.65;;;;;;;-0.72;100.00;102898.47;5029501;28;20056;-66
2023/01/21 05:22:04;;;;;;;40.35;18.00;;;;;;;-0.72;100.00;102902.78;5025738;28;20049;-66
2023/01/21 05:24:31;;;;;;;37.17;17.95;;;;;;;-0.74;100.00;102909.69;5030730;28;20103;-67
2023/01/21 05:26:57;;;;;;;39.05;20.40;;;;;;;-0.79;100.00;102909.72;5030417;28;20048;-66
2023/01/21 05:29:23;;;;;;;45.38;20.05;;;;;;;-0.80;100.00;102906.31;5019216;28;20053;-66
2023/01/21 05:31:50;;;;;;;44.13;18.55;;;;;;;-0.78;100.00;102911.44;5030029;28;20057;-66
2023/01/21 05:34:16;;;;;;;39.05;17.90;;;;;;;-0.78;100.00;102913.13;5022833;28;20057;-66
2023/01/21 05:36:43;;;;;;;47.10;20.58;;;;;;;-0.81;100.00;102911.47;5033738;28;20055;-66
2023/01/21 05:39:09;;;;;;;41.47;20.38;;;;;;;-0.77;100.00;102912.28;5020748;28;20076;-66
2023/01/21 05:41:35;;;;;;;42.92;20.38;;;;;;;-0.74;100.00;102914.84;5032992;28;20072;-66
2023/01/21 05:44:02;;;;;;;42.10;19.50;;;;;;;-0.73;100.00;102921.66;5033606;28;20037;-66
2023/01/21 05:46:29;;;;;;;44.83;21.08;;;;;;;-0.74;100.00;102925.13;5017943;28;20060;-66
2023/01/21 05:48:55;;;;;;;42.22;19.77;;;;;;;-0.76;100.00;102927.72;5022016;28;20065;-66
2023/01/21 05:51:21;;;;;;;46.95;21.00;;;;;;;-0.74;100.00;102936.28;5024410;28;20053;-66
2023/01/21 05:53:48;;;;;;;48.97;21.25;;;;;;;-0.75;100.00;102942.31;5023917;28;20573;-66
2023/01/21 05:56:14;;;;;;;38.55;17.98;;;;;;;-0.75;100.00;102939.72;5038860;28;20045;-66
2023/01/21 05:58:41;;;;;;;48.63;22.25;;;;;;;-0.71;100.00;102948.28;5015912;28;20545;-66
2023/01/21 06:01:07;;;;;;;45.83;21.80;;;;;;;-0.71;100.00;102943.97;5029208;28;20053;-67
2023/01/21 06:03:34;;;;;;;49.33;21.13;;;;;;;-0.67;100.00;102952.50;5026952;28;20053;-66
2023/01/21 06:06:01;;;;;;;46.67;21.25;;;;;;;-0.61;100.00;102944.69;5032136;28;20233;-68
2023/01/21 06:08:27;;;;;;;52.08;22.55;;;;;;;-0.60;100.00;102954.97;5026368;28;20056;-66
2023/01/21 06:10:57;;;;;;;54.13;23.00;;;;;;;-0.60;100.00;102962.72;5021059;28;20050;-67
2023/01/21 06:13:23;;;;;;;48.72;21.92;;;;;;;-0.56;100.00;102963.53;5036283;28;20093;-67
2023/01/21 06:15:53;;;;;;;52.50;21.95;;;;;;;-0.49;100.00;102959.13;5017424;28;20046;-67
2023/01/21 06:18:20;;;;;;;51.63;22.48;;;;;;;-0.48;100.00;102966.84;5027199;28;20049;-67
2023/01/21 06:20:47;;;;;;;51.05;23.65;;;;;;;-0.49;100.00;102966.84;5020205;28;20080;-67
2023/01/21 06:23:13;;;;;;;55.33;23.38;;;;;;;-0.42;100.00;102974.47;5037045;28;20057;-66
2023/01/21 06:25:42;;;;;;;56.03;22.98;;;;;;;-0.39;100.00;102981.34;5036553;28;20053;-66
2023/01/21 06:28:11;;;;;;;54.63;23.92;;;;;;;-0.35;100.00;102977.84;5029459;28;20052;-67
2023/01/21 06:30:38;;;;;;;55.88;23.00;;;;;;;-0.32;100.00;102995.00;5009466;28;20053;-66
2023/01/21 06:33:04;;;;;;;62.97;23.73;;;;;;;-0.34;100.00;103004.47;5026366;28;20468;-66
2023/01/21 06:35:31;;;;;;;56.67;22.02;;;;;;;-0.31;100.00;102999.28;5033750;28;20053;-68
2023/01/21 06:37:57;;;;;;;61.10;24.42;;;;;;;-0.28;100.00;103004.38;5026826;28;20072;-67
2023/01/21 06:40:24;;;;;;;51.47;21.55;;;;;;;-0.28;100.00;103001.81;5034140;28;20417;-66
2023/01/21 06:42:52;;;;;;;52.78;22.40;;;;;;;-0.24;100.00;102996.56;5021854;28;20058;-68
2023/01/21 06:45:19;;;;;;;58.28;23.50;;;;;;;-0.24;100.00;103008.63;5011649;28;20050;-65
2023/01/21 06:47:45;;;;;;;52.45;21.98;;;;;;;-0.24;100.00;103006.03;5028057;28;20085;-67
2023/01/21 06:50:21;;;;;;;61.78;24.60;;;;;;;-0.18;100.00;103005.09;5035781;28;20107;-67
2023/01/21 06:52:48;;;;;;;56.45;23.83;;;;;;;-0.25;100.00;103015.50;5029909;28;20049;-67
2023/01/21 06:55:16;;;;;;;55.47;23.77;;;;;;;-0.27;100.00;103024.16;5030179;28;20405;-66
2023/01/21 06:57:43;;;;;;;58.60;22.90;;;;;;;-0.27;100.00;103012.09;5024222;28;20140;-66
2023/01/21 07:00:13;;;;;;;55.70;21.63;;;;;;;-0.24;100.00;103027.53;5025021;28;20042;-67
2023/01/21 07:02:40;;;;;;;56.75;23.30;;;;;;;-0.18;100.00;103030.91;5021282;28;20053;-68
2023/01/21 07:05:07;;;;;;;52.75;20.40;;;;;;;-0.12;100.00;103033.38;5012191;28;20048;-67
2023/01/21 07:07:34;;;;;;;54.78;22.65;;;;;;;-0.12;100.00;103041.97;5016286;28;20057;-68
2023/01/21 07:10:00;;;;;;;51.40;21.50;;;;;;;-0.10;100.00;103049.69;5022943;28;20104;-62
2023/01/21 07:12:26;;;;;;;60.85;23.50;;;;;;;-0.09;100.00;103046.25;5007638;28;20049;-65
2023/01/21 07:14:53;;;;;;;53.10;23.20;;;;;;;-0.07;100.00;103050.50;5019706;28;20520;-64
2023/01/21 07:17:20;;;;;;;57.78;21.45;;;;;;;-0.09;100.00;103053.97;5008635;28;20053;-64
2023/01/21 07:19:46;;;;;;;57.97;22.33;;;;;;;-0.09;100.00;103054.84;5018387;28;20053;-65
2023/01/21 07:22:13;;;;;;;49.65;18.92;;;;;;;-0.07;100.00;103058.25;5003855;28;20049;-67
2023/01/21 07:24:39;;;;;;;52.22;20.80;;;;;;;-0.03;100.00;103062.47;5017676;28;20415;-65
2023/01/21 07:27:06;;;;;;;60.10;23.42;;;;;;;0.02;100.00;103071.88;5026908;28;20091;-68
2023/01/21 07:29:35;;;;;;;54.30;21.98;;;;;;;0.03;100.00;103073.59;5016759;28;22187;-65
2023/01/21 07:32:03;;;;;;;56.40;22.77;;;;;;;0.05;100.00;103079.59;5026537;28;20060;-68
2023/01/21 07:34:29;;;;;;;59.72;23.80;;;;;;;0.05;100.00;103084.75;5012714;28;20092;-69
2023/01/21 07:36:56;;;;;;;60.30;23.95;;;;;;;0.05;100.00;103088.16;5009781;28;20050;-67
2023/01/21 07:39:22;;;;;;;52.15;21.55;;;;;;;0.09;100.00;103089.81;5021704;28;20054;-68
2023/01/21 07:41:48;;;;;;;58.42;23.58;;;;;;;0.08;100.00;103092.41;5017761;28;20064;-67
2023/01/21 07:44:15;;;;;;;55.78;22.65;;;;;;;0.07;100.00;103096.75;5008716;28;20053;-65
2023/01/21 07:46:44;;;;;;;54.42;22.35;;;;;;;0.10;100.00;103103.56;5021462;28;20057;-69
2023/01/21 07:49:15;;;;;;;55.35;22.75;;;;;;;0.10;100.00;103108.72;5021099;28;20087;-67
2023/01/21 07:51:46;;;;;;;43.40;19.88;;;;;;;0.16;100.00;103113.84;5010461;28;20284;-68
2023/01/21 07:54:14;;;;;;;50.03;21.52;;;;;;;0.20;100.00;103115.50;5003498;28;20182;-69
2023/01/21 07:56:41;;;;;;;47.85;21.92;;;;;;;0.22;100.00;103120.59;5019326;28;20110;-68
2023/01/21 07:59:09;;;;;;;52.20;22.55;;;;;;;0.31;100.00;103113.56;5025580;28;20113;-68
2023/01/21 08:01:35;;;;;;;59.35;24.00;;;;;;;0.30;100.00;103123.94;5027794;28;20080;-67
2023/01/21 08:04:02;;;;;;;51.05;22.63;;;;;;;0.30;100.00;103121.38;5023277;28;20052;-68
2023/01/21 08:06:29;;;;;;;54.03;23.00;;;;;;;0.33;100.00;103129.06;5023608;28;20453;-67
2023/01/21 08:08:56;;;;;;;53.22;23.13;;;;;;;0.37;100.00;103135.88;5002367;28;20084;-69
2023/01/21 08:11:23;;;;;;;50.65;21.77;;;;;;;0.41;100.00;103139.25;5026196;28;20072;-67
2023/01/21 08:13:49;;;;;;;48.13;20.90;;;;;;;0.43;100.00;103150.41;5034216;28;20053;-67
2023/01/21 08:16:16;;;;;;;52.28;23.65;;;;;;;0.43;100.00;103148.69;5019242;28;20087;-67
2023/01/21 08:18:43;;;;;;;49.88;23.23;;;;;;;0.46;100.00;103156.41;5022284;28;20055;-66
2023/01/21 08:21:09;;;;;;;49.97;22.77;;;;;;;0.48;100.00;103164.13;5018289;28;20508;-67
2023/01/21 08:23:35;;;;;;;46.33;21.23;;;;;;;0.51;100.00;103166.63;5029964;28;20060;-66
2023/01/21 08:26:03;;;;;;;49.17;21.73;;;;;;;0.57;100.00;103166.56;5022116;28;20052;-68
2023/01/21 08:28:30;;;;;;;47.80;21.47;;;;;;;0.55;100.00;103170.91;4995438;28;20056;-69
2023/01/21 08:31:07;;;;;;;46.38;19.83;;;;;;;0.65;100.00;103163.84;5004951;28;20045;-71
2023/01/21 08:33:34;;;;;;;44.70;20.58;;;;;;;0.64;100.00;103172.47;5002981;28;20053;-67
2023/01/21 08:36:04;;;;;;;45.63;20.13;;;;;;;0.64;100.00;103175.06;5016933;28;20620;-68
2023/01/21 08:38:32;;;;;;;49.80;21.42;;;;;;;0.70;100.00;103169.78;4992726;28;20053;-68
2023/01/21 08:40:59;;;;;;;45.55;21.35;;;;;;;0.69;100.00;103166.38;5010852;28;20402;-67
2023/01/21 08:43:26;;;;;;;49.50;20.90;;;;;;;0.72;100.00;103171.47;5015714;28;20054;-66
2023/01/21 08:45:57;;;;;;;46.40;19.58;;;;;;;0.74;100.00;103172.28;5004651;28;20085;-67
2023/01/21 08:48:24;;;;;;;42.08;20.15;;;;;;;0.76;100.00;103172.28;5018624;28;20053;-68
2023/01/21 08:50:52;;;;;;;46.10;20.08;;;;;;;0.82;100.00;103173.91;5018528;28;20080;-65
2023/01/21 08:53:18;;;;;;;49.80;20.40;;;;;;;0.84;100.00;103178.16;4999921;28;20053;-68
2023/01/21 08:55:45;;;;;;;48.42;20.95;;;;;;;0.87;100.00;103174.69;5025429;28;20068;-67
2023/01/21 08:58:11;;;;;;;48.05;21.02;;;;;;;0.93;100.00;103187.50;5033536;28;20191;-66
2023/01/21 09:00:38;;;;;;;49.83;20.60;;;;;;;0.94;100.00;103181.44;5020346;28;20049;-67
2023/01/21 09:03:04;;;;;;;50.08;21.75;;;;;;;0.94;100.00;103177.16;5035287;28;20057;-65
2023/01/21 09:05:31;;;;;;;43.15;20.98;;;;;;;0.95;100.00;103178.00;5015910;28;20050;-67
2023/01/21 09:07:58;;;;;;;44.92;20.92;;;;;;;0.93;100.00;103178.00;5000980;28;20061;-66
2023/01/21 09:13:09;;;;;;;48.03;21.83;;;;;;;1.02;100.00;103168.41;5011898;28;20403;-67
2023/01/21 09:15:41;;;;;;;49.40;23.02;;;;;;;1.11;100.00;103176.00;5027330;28;20057;-66
2023/01/21 09:18:07;;;;;;;46.60;20.08;;;;;;;1.09;100.00;103176.00;5020580;28;20073;-69
2023/01/21 09:20:34;;;;;;;48.40;20.67;;;;;;;1.16;100.00;103185.38;5014350;28;20085;-66
2023/01/21 09:23:01;;;;;;;44.40;20.63;;;;;;;1.16;100.00;103180.22;5019093;28;20108;-67
2023/01/21 09:25:27;;;;;;;46.03;21.48;;;;;;;1.17;100.00;103176.72;5020104;28;20501;-66
2023/01/21 09:27:54;;;;;;;46.60;21.85;;;;;;;1.19;100.00;103180.13;5021418;28;20064;-68
2023/01/21 09:30:20;;;;;;;48.67;21.67;;;;;;;1.24;100.00;103184.41;5006332;28;20058;-69
2023/01/21 09:32:46;;;;;;;50.80;21.98;;;;;;;1.27;100.00;103190.34;5026885;28;20053;-68
2023/01/21 09:35:13;;;;;;;47.00;20.30;;;;;;;1.33;100.00;103194.56;5024435;28;20049;-70
2023/01/21 09:37:40;;;;;;;48.03;21.45;;;;;;;1.31;100.00;103196.31;5018458;28;20068;-67
2023/01/21 09:40:15;;;;;;;44.60;20.05;;;;;;;1.41;100.00;103207.34;5021469;28;20085;-67
2023/01/21 09:42:41;;;;;;;47.97;21.77;;;;;;;1.38;100.00;103205.69;5011613;28;20132;-68
2023/01/21 09:45:13;;;;;;;51.45;21.95;;;;;;;1.42;100.00;103212.50;5006141;28;20160;-68
2023/01/21 09:47:43;;;;;;;44.42;21.75;;;;;;;1.46;100.00;103214.13;5011441;28;20045;-67
2023/01/21 09:50:19;;;;;;;47.30;22.25;;;;;;;1.50;100.00;103223.53;5029939;28;20060;-68
2023/01/21 09:52:52;;;;;;;48.55;22.02;;;;;;;1.53;100.00;103233.84;5018964;28;20053;-67
2023/01/21 09:55:26;;;;;;;48.60;21.48;;;;;;;1.61;100.00;103235.41;5017440;28;20267;-68
2023/01/21 09:58:05;;;;;;;49.80;21.52;;;;;;;1.66;100.00;103226.69;5020983;28;20122;-67
2023/01/21 10:00:53;;;;;;;44.00;20.38;;;;;;;1.72;100.00;103233.47;5018581;28;20056;-69
2023/01/21 10:03:30;;;;;;;42.53;20.42;;;;;;;1.71;100.00;103239.56;5020785;28;20053;-68
2023/01/21 10:06:18;;;;;;;46.92;21.48;;;;;;;1.78;100.00;103241.13;5018933;28;20049;-68
2023/01/21 10:09:06;;;;;;;46.83;21.80;;;;;;;1.82;100.00;103242.75;5026064;28;20049;-68
2023/01/21 10:11:56;;;;;;;45.72;20.70;;;;;;;1.84;100.00;103240.16;5012286;28;20854;-68
2023/01/21 10:15:00;;;;;;;51.03;22.35;;;;;;;1.92;100.00;103233.97;5025660;28;20049;-67
2023/01/21 10:17:55;;;;;;;44.35;21.08;;;;;;;1.92;100.00;103235.66;5009689;28;20052;-68
2023/01/21 10:20:27;;;;;;;46.78;21.50;;;;;;;1.94;100.00;103229.59;5025668;28;20149;-69
2023/01/21 10:23:26;;;;;;;44.38;21.75;;;;;;;1.98;100.00;103233.84;5017881;28;20049;-68
2023/01/21 10:25:55;;;;;;;43.58;20.98;;;;;;;2.02;100.00;103233.75;5005136;28;20077;-68
2023/01/21 10:28:24;;;;;;;48.25;21.90;;;;;;;2.07;100.00;103237.09;5019715;28;20060;-68
2023/01/21 10:30:56;;;;;;;42.45;19.63;;;;;;;2.10;100.00;103237.06;5007474;28;20064;-68
2023/01/21 10:33:27;;;;;;;52.50;21.88;;;;;;;2.11;100.00;103242.19;4995373;28;20103;-68
2023/01/21 10:36:06;;;;;;;46.00;21.38;;;;;;;2.16;100.00;103240.34;5025316;28;20524;-68
2023/01/21 10:38:50;;;;;;;42.38;20.65;;;;;;;2.22;100.00;103239.38;5021417;28;20049;-67
2023/01/21 10:41:35;;;;;;;45.40;21.75;;;;;;;2.27;100.00;103237.53;5009452;28;20763;-67
2023/01/21 10:44:55;;;;;;;43.85;20.48;;;;;;;2.34;100.00;103233.91;5020841;28;20057;-67
2023/01/21 10:47:41;;;;;;;45.65;20.88;;;;;;;2.39;100.00;103233.81;5016110;28;20050;-68
2023/01/21 10:51:01;;;;;;;42.53;19.23;;;;;;;2.47;100.00;103226.75;5019531;28;20057;-68
2023/01/21 10:53:39;;;;;;;42.80;19.25;;;;;;;2.52;100.00;103229.22;4928978;28;20051;-66
2023/01/21 10:56:25;;;;;;;41.88;18.80;;;;;;;2.57;100.00;103222.22;5019625;28;20049;-67
2023/01/21 10:58:56;;;;;;;45.45;19.80;;;;;;;2.53;100.00;103228.34;5003992;28;20506;-69
2023/01/21 11:01:33;;;;;;;39.25;18.73;;;;;;;2.56;100.00;103231.69;5016879;28;20053;-70
2023/01/21 11:04:05;;;;;;;37.50;18.23;;;;;;;2.60;100.00;103231.63;5008778;28;20077;-69
2023/01/21 11:06:34;;;;;;;35.88;17.23;;;;;;;2.62;100.00;103229.84;5017702;28;20076;-70
2023/01/21 11:09:03;;;;;;;39.95;18.00;;;;;;;2.66;100.00;103232.34;5017669;28;20057;-69
2023/01/21 11:11:32;;;;;;;35.35;17.65;;;;;;;2.67;100.00;103234.06;5016659;28;20069;-69
2023/01/21 11:13:59;;;;;;;35.90;17.80;;;;;;;2.75;100.00;103233.88;5018639;28;20060;-68
2023/01/21 11:16:38;;;;;;;38.95;19.25;;;;;;;2.87;100.00;103230.97;5018567;28;20429;-67
2023/01/21 11:19:06;;;;;;;35.85;18.15;;;;;;;2.91;100.00;103224.81;5008152;28;20056;-69
2023/01/21 11:21:33;;;;;;;39.92;18.83;;;;;;;2.93;100.00;103220.44;5009266;28;20129;-68
2023/01/21 11:24:18;;;;;;;37.58;17.95;;;;;;;3.01;100.00;103216.81;5024987;28;20049;-68
2023/01/21 11:26:53;;;;;;;37.63;18.10;;;;;;;3.03;100.00;103215.03;5006448;28;20049;-68